Time;durP1;ratioP1;P1;durP2;ratioP2;P2;SDS_P1;SDS_P2;PMS_P1;PMS_P2;Temp;Humidity;BMP_temperature;BMP_pressure;BME280_temperature;BME280_humidity;BME280_pressure;Samples;Min_cycle;Max_cycle;Signal;HPM_P1;HPM_P2
2021/07/30 00:01:10;;;;;;;7.47;2.40;;;16.40;73.00;;;;;;5083466;28;20471;-89
2021/07/30 00:03:35;;;;;;;11.85;3.28;;;16.50;72.90;;;;;;5073293;28;20384;-90
2021/07/30 00:06:01;;;;;;;11.18;3.10;;;16.40;73.00;;;;;;5088643;28;20553;-89
2021/07/30 00:08:26;;;;;;;9.77;3.17;;;16.30;73.50;;;;;;5073301;28;20372;-90
2021/07/30 00:10:55;;;;;;;11.00;2.83;;;16.30;73.40;;;;;;5088566;28;20409;-88
2021/07/30 00:13:21;;;;;;;10.07;2.90;;;16.30;73.50;;;;;;5091874;28;20366;-88
2021/07/30 00:15:47;;;;;;;6.20;2.97;;;16.40;73.50;;;;;;5093452;28;20381;-88
2021/07/30 00:18:12;;;;;;;7.75;3.05;;;16.30;73.20;;;;;;5075076;28;20424;-89
2021/07/30 00:20:38;;;;;;;6.63;2.63;;;16.30;73.30;;;;;;5093327;28;20377;-90
2021/07/30 00:23:03;;;;;;;6.63;3.20;;;16.30;73.40;;;;;;5093301;28;20839;-87
2021/07/30 00:25:29;;;;;;;7.38;2.88;;;16.20;73.40;;;;;;5093374;28;20483;-88
2021/07/30 00:27:55;;;;;;;6.33;3.33;;;16.30;73.90;;;;;;5079279;28;20863;-88
2021/07/30 00:30:20;;;;;;;11.80;3.13;;;16.20;73.90;;;;;;5076103;28;20838;-89
2021/07/30 00:32:46;;;;;;;7.28;2.90;;;16.20;74.50;;;;;;5093161;28;20366;-87
2021/07/30 00:35:11;;;;;;;10.83;3.47;;;16.20;74.30;;;;;;5074823;28;20722;-88
2021/07/30 00:37:38;;;;;;;10.20;3.25;;;16.20;74.30;;;;;;5092984;28;20409;-89
2021/07/30 00:40:05;;;;;;;5.32;2.92;;;16.20;74.20;;;;;;5099773;28;20924;-88
2021/07/30 00:42:31;;;;;;;9.88;2.78;;;16.20;74.20;;;;;;5072600;28;20391;-88
2021/07/30 00:44:58;;;;;;;5.45;2.85;;;16.20;74.90;;;;;;5072622;28;20376;-87
2021/07/30 00:47:24;;;;;;;6.82;2.95;;;16.20;74.90;;;;;;5072686;28;20394;-90
2021/07/30 00:49:50;;;;;;;8.85;2.38;;;16.20;74.80;;;;;;5054823;28;20399;-89
2021/07/30 00:52:15;;;;;;;6.35;2.83;;;16.10;74.20;;;;;;5079477;28;20410;-89
2021/07/30 00:54:41;;;;;;;6.50;2.70;;;16.10;74.40;;;;;;5074626;28;20382;-89
2021/07/30 00:57:07;;;;;;;7.90;2.73;;;16.20;74.60;;;;;;5089877;28;20402;-88
2021/07/30 00:59:33;;;;;;;11.13;2.80;;;16.30;74.20;;;;;;5072425;28;20801;-88
2021/07/30 01:01:58;;;;;;;8.07;2.70;;;16.10;74.30;;;;;;5072234;28;20415;-88
2021/07/30 01:04:24;;;;;;;9.10;2.80;;;16.20;74.20;;;;;;5072168;28;20382;-88
2021/07/30 01:06:50;;;;;;;10.30;2.80;;;16.20;74.10;;;;;;5072059;28;20387;-88
2021/07/30 01:09:15;;;;;;;8.20;2.90;;;16.10;74.50;;;;;;5087684;28;20380;-88
2021/07/30 01:11:44;;;;;;;12.18;3.00;;;16.10;74.30;;;;;;5071992;28;20412;-88
2021/07/30 01:14:09;;;;;;;6.47;2.83;;;16.10;74.30;;;;;;5071940;28;20429;-88
2021/07/30 01:16:36;;;;;;;6.63;2.73;;;16.10;74.10;;;;;;5071785;28;20728;-88
2021/07/30 01:19:01;;;;;;;7.07;2.60;;;16.20;74.10;;;;;;5090569;28;20497;-88
2021/07/30 01:21:32;;;;;;;8.03;2.70;;;16.20;74.00;;;;;;5107774;28;20784;-88
2021/07/30 01:23:59;;;;;;;6.95;2.72;;;16.30;74.00;;;;;;5107552;28;20389;-88
2021/07/30 01:26:24;;;;;;;10.20;2.88;;;16.20;73.90;;;;;;5091562;28;20366;-88
2021/07/30 01:28:50;;;;;;;6.00;2.50;;;16.20;74.20;;;;;;5091720;28;20370;-88
2021/07/30 01:31:15;;;;;;;7.73;2.80;;;16.10;73.80;;;;;;5091471;28;20381;-88
2021/07/30 01:33:41;;;;;;;7.97;2.35;;;16.10;74.00;;;;;;5071361;28;20372;-89
2021/07/30 01:36:06;;;;;;;7.47;2.80;;;16.20;73.90;;;;;;5071154;28;20376;-88
2021/07/30 01:38:32;;;;;;;10.82;3.13;;;16.20;74.00;;;;;;5070956;28;20447;-89
2021/07/30 01:41:08;;;;;;;9.30;2.80;;;16.30;73.90;;;;;;5086773;28;20396;-88
2021/07/30 01:43:35;;;;;;;8.70;2.88;;;16.20;73.80;;;;;;5071025;28;20379;-87
2021/07/30 01:46:01;;;;;;;8.65;2.63;;;16.20;74.00;;;;;;5071081;28;20408;-87
2021/07/30 01:48:26;;;;;;;11.20;3.38;;;16.20;74.10;;;;;;5052516;28;20769;-88
2021/07/30 01:50:52;;;;;;;8.27;3.00;;;16.30;74.20;;;;;;5086561;28;20437;-89
2021/07/30 01:53:17;;;;;;;9.93;2.90;;;16.30;74.00;;;;;;5070887;28;20789;-90
2021/07/30 01:55:43;;;;;;;7.32;2.50;;;16.30;73.80;;;;;;5086695;28;20462;-88
2021/07/30 01:58:08;;;;;;;9.10;3.00;;;16.30;73.80;;;;;;5070762;28;20411;-87
2021/07/30 02:00:34;;;;;;;12.38;2.88;;;16.20;74.00;;;;;;5053097;28;20396;-88
2021/07/30 02:02:59;;;;;;;6.77;2.63;;;16.20;74.10;;;;;;5086258;28;20464;-88
2021/07/30 02:05:25;;;;;;;5.83;2.53;;;16.20;74.20;;;;;;5087892;28;20378;-89
2021/07/30 02:07:50;;;;;;;9.80;2.88;;;16.20;73.80;;;;;;5091230;28;20374;-91
2021/07/30 02:10:16;;;;;;;7.00;3.20;;;16.20;74.10;;;;;;5091042;28;20827;-87
2021/07/30 02:15:25;;;;;;;9.98;2.88;;;16.20;74.10;;;;;;5091295;28;20380;-88
2021/07/30 02:17:51;;;;;;;9.10;3.00;;;16.20;74.10;;;;;;5103421;28;20747;-89
2021/07/30 02:20:16;;;;;;;7.20;2.70;;;16.20;74.30;;;;;;5077413;28;20381;-88
2021/07/30 02:22:42;;;;;;;10.63;3.03;;;16.20;74.10;;;;;;5091111;28;20769;-88
2021/07/30 02:25:08;;;;;;;5.87;2.60;;;16.20;74.20;;;;;;5072707;28;20927;-88
2021/07/30 02:27:34;;;;;;;7.43;2.80;;;16.30;74.40;;;;;;5090950;28;20992;-89
2021/07/30 02:29:59;;;;;;;10.27;2.97;;;16.30;74.20;;;;;;5070658;28;20414;-88
2021/07/30 02:32:25;;;;;;;10.33;3.07;;;16.30;74.40;;;;;;5086264;28;20459;-88
2021/07/30 02:34:50;;;;;;;8.97;2.80;;;16.30;74.30;;;;;;5070750;28;20512;-90
2021/07/30 02:37:16;;;;;;;6.00;2.60;;;16.30;74.50;;;;;;5079298;28;20385;-89
2021/07/30 02:39:41;;;;;;;7.47;2.87;;;16.30;74.20;;;;;;5090830;28;20739;-89
2021/07/30 02:42:07;;;;;;;12.73;3.38;;;16.20;74.30;;;;;;5106407;28;20466;-89
2021/07/30 02:44:32;;;;;;;9.73;3.00;;;16.20;74.60;;;;;;5090800;28;20382;-88
2021/07/30 02:46:58;;;;;;;10.20;3.00;;;16.30;74.20;;;;;;5090541;28;20374;-91
2021/07/30 02:49:23;;;;;;;7.68;2.70;;;16.30;74.10;;;;;;5090477;28;20378;-88
2021/07/30 02:51:49;;;;;;;9.43;2.93;;;16.20;74.40;;;;;;5090583;28;20772;-88
2021/07/30 02:54:14;;;;;;;10.05;2.85;;;16.20;74.40;;;;;;5090798;28;20402;-88
2021/07/30 02:56:40;;;;;;;11.60;3.10;;;16.20;74.10;;;;;;5090684;28;20378;-88
2021/07/30 02:59:05;;;;;;;10.02;2.63;;;16.20;74.20;;;;;;5090483;28;20765;-92
2021/07/30 03:01:31;;;;;;;8.20;3.08;;;16.20;74.50;;;;;;5110746;28;20819;-92
2021/07/30 03:03:56;;;;;;;11.17;2.87;;;16.20;74.50;;;;;;5075784;28;20403;-88
2021/07/30 03:06:22;;;;;;;9.60;2.80;;;16.20;74.70;;;;;;5074367;28;20448;-90
2021/07/30 03:08:47;;;;;;;10.43;3.43;;;16.20;74.60;;;;;;5074450;28;20383;-91
2021/07/30 03:11:13;;;;;;;10.23;3.13;;;16.20;74.70;;;;;;5074279;28;20399;-90
2021/07/30 03:13:38;;;;;;;7.35;2.92;;;16.20;74.80;;;;;;5074368;28;20792;-88
2021/07/30 03:16:04;;;;;;;8.47;2.83;;;16.20;74.90;;;;;;5074047;28;20752;-89
2021/07/30 03:18:30;;;;;;;9.77;3.30;;;16.20;74.90;;;;;;5074214;28;20495;-89
2021/07/30 03:20:56;;;;;;;9.68;3.13;;;16.20;75.00;;;;;;5074180;28;20756;-90
2021/07/30 03:23:21;;;;;;;5.50;2.83;;;16.10;75.10;;;;;;5073976;28;20820;-92
2021/07/30 03:25:47;;;;;;;8.10;2.97;;;16.20;74.90;;;;;;5056288;28;20388;-89
2021/07/30 03:28:12;;;;;;;8.33;2.77;;;16.10;75.00;;;;;;5056189;28;20856;-89
2021/07/30 03:30:38;;;;;;;11.77;2.70;;;16.10;75.00;;;;;;5089755;28;20521;-89
2021/07/30 03:33:03;;;;;;;5.50;2.63;;;16.10;75.10;;;;;;5092355;28;20410;-89
2021/07/30 03:35:29;;;;;;;8.00;3.20;;;16.10;75.20;;;;;;5094226;28;20374;-89
2021/07/30 03:37:55;;;;;;;8.70;2.97;;;16.10;74.90;;;;;;5093835;28;20409;-88
2021/07/30 03:40:21;;;;;;;10.25;3.13;;;16.10;75.10;;;;;;5093870;28;20411;-90
2021/07/30 03:42:46;;;;;;;7.57;2.97;;;16.10;75.10;;;;;;5097936;28;20390;-89
2021/07/30 03:45:11;;;;;;;7.93;2.80;;;16.10;75.20;;;;;;5073679;28;20372;-89
2021/07/30 03:47:37;;;;;;;10.75;2.95;;;16.10;75.30;;;;;;5055916;28;20723;-89
2021/07/30 03:50:03;;;;;;;9.93;3.23;;;16.10;75.40;;;;;;5073754;28;20507;-90
2021/07/30 03:52:28;;;;;;;9.02;2.90;;;16.00;75.40;;;;;;5055585;28;20379;-90
2021/07/30 03:54:54;;;;;;;7.85;3.10;;;16.10;75.50;;;;;;5073573;28;20367;-89
2021/07/30 03:57:19;;;;;;;10.03;2.90;;;16.10;75.60;;;;;;5073405;28;20716;-89
2021/07/30 03:59:45;;;;;;;6.97;2.80;;;16.10;75.50;;;;;;5073171;28;20806;-86
2021/07/30 04:02:10;;;;;;;7.30;3.20;;;16.10;75.60;;;;;;5055256;28;20376;-88
2021/07/30 04:04:36;;;;;;;14.70;3.00;;;16.10;75.60;;;;;;5073458;28;20459;-88
2021/07/30 04:07:02;;;;;;;10.80;3.27;;;16.10;75.70;;;;;;5073580;28;20371;-89
2021/07/30 04:09:27;;;;;;;7.72;3.20;;;15.90;75.70;;;;;;5073406;28;20376;-89
2021/07/30 04:11:53;;;;;;;6.60;2.83;;;15.90;75.80;;;;;;5072878;28;20372;-90
2021/07/30 04:14:18;;;;;;;7.15;3.10;;;15.90;75.90;;;;;;5055414;28;20387;-88
2021/07/30 04:16:44;;;;;;;10.23;3.50;;;15.90;75.90;;;;;;5055366;28;20530;-91
2021/07/30 04:19:09;;;;;;;7.27;3.10;;;15.90;76.20;;;;;;5055017;28;20616;-89
2021/07/30 04:21:37;;;;;;;10.27;3.42;;;15.90;76.00;;;;;;5073280;28;20388;-88
2021/07/30 04:24:03;;;;;;;9.82;3.22;;;15.90;76.10;;;;;;5055165;28;20442;-89
2021/07/30 04:26:28;;;;;;;13.10;4.25;;;15.80;76.20;;;;;;5072958;28;21005;-88
2021/07/30 04:28:54;;;;;;;10.13;3.23;;;15.80;76.30;;;;;;5073253;28;20855;-89
2021/07/30 04:31:20;;;;;;;9.10;2.83;;;15.80;76.30;;;;;;5073675;28;20398;-90
2021/07/30 04:33:45;;;;;;;6.72;2.90;;;15.80;76.30;;;;;;5055003;28;20697;-88
2021/07/30 04:36:17;;;;;;;6.40;3.13;;;15.90;76.50;;;;;;5072894;28;20833;-90
2021/07/30 04:38:43;;;;;;;10.02;3.15;;;15.80;76.50;;;;;;5072652;28;20504;-89
2021/07/30 04:41:09;;;;;;;8.70;3.13;;;15.80;76.60;;;;;;5072610;28;20447;-89
2021/07/30 04:43:35;;;;;;;13.45;3.70;;;15.80;76.50;;;;;;5073019;28;20466;-91
2021/07/30 04:46:01;;;;;;;8.98;3.40;;;15.80;76.80;;;;;;5054894;28;20375;-89
2021/07/30 04:48:26;;;;;;;8.02;3.20;;;15.80;77.00;;;;;;5054715;28;20470;-88
2021/07/30 04:50:53;;;;;;;10.40;3.00;;;15.80;76.90;;;;;;5052823;28;20485;-89
2021/07/30 04:53:18;;;;;;;10.10;3.35;;;15.80;76.80;;;;;;5052409;28;20393;-89
2021/07/30 04:55:44;;;;;;;9.03;3.70;;;15.80;76.90;;;;;;5034824;28;20424;-90
2021/07/30 04:58:09;;;;;;;11.50;3.57;;;15.80;76.90;;;;;;5058963;28;20410;-91
2021/07/30 05:00:35;;;;;;;11.90;3.22;;;15.80;76.90;;;;;;5074573;28;20385;-88
2021/07/30 05:03:00;;;;;;;8.67;2.87;;;15.80;77.00;;;;;;5108551;28;20419;-92
2021/07/30 05:05:29;;;;;;;10.70;3.37;;;15.80;77.00;;;;;;5092884;28;20502;-90
2021/07/30 05:07:54;;;;;;;9.63;3.15;;;15.80;77.30;;;;;;5090906;28;20382;-92
2021/07/30 05:10:20;;;;;;;11.97;3.60;;;15.70;77.40;;;;;;5072316;28;20390;-90
2021/07/30 05:12:45;;;;;;;5.78;2.85;;;15.70;77.70;;;;;;5072206;28;20376;-90
2021/07/30 05:15:11;;;;;;;11.83;3.10;;;15.70;77.60;;;;;;5072198;28;20715;-89
2021/07/30 05:17:37;;;;;;;8.27;3.10;;;15.70;77.60;;;;;;5054597;28;20394;-90
2021/07/30 05:20:03;;;;;;;8.27;3.93;;;15.70;77.50;;;;;;5071828;28;20748;-88
2021/07/30 05:22:28;;;;;;;9.10;2.92;;;15.60;77.90;;;;;;5082347;28;20448;-94
2021/07/30 05:24:54;;;;;;;7.85;2.75;;;15.70;77.80;;;;;;5091371;28;20381;-87
2021/07/30 05:27:19;;;;;;;6.87;3.20;;;15.70;77.50;;;;;;5071677;28;20491;-89
2021/07/30 05:29:45;;;;;;;6.83;2.87;;;15.70;77.50;;;;;;5087572;28;20395;-89
2021/07/30 05:32:11;;;;;;;7.88;2.67;;;15.60;77.50;;;;;;5077088;28;20834;-92
2021/07/30 05:34:36;;;;;;;9.75;2.90;;;15.70;77.50;;;;;;5076021;28;20379;-89
2021/07/30 05:37:02;;;;;;;6.65;2.80;;;15.70;77.40;;;;;;5054006;28;20441;-92
2021/07/30 05:39:30;;;;;;;12.67;3.80;;;15.80;77.60;;;;;;5055239;28;20539;-93
2021/07/30 05:41:55;;;;;;;5.93;2.60;;;15.80;77.50;;;;;;5073881;28;20405;-89
2021/07/30 05:44:21;;;;;;;5.60;2.85;;;15.80;77.70;;;;;;5091813;28;21107;-89
2021/07/30 05:46:46;;;;;;;7.70;3.05;;;15.80;77.80;;;;;;5107376;28;20418;-90
2021/07/30 05:49:12;;;;;;;7.63;2.80;;;15.80;77.50;;;;;;5107339;28;20742;-92
2021/07/30 05:51:38;;;;;;;6.78;2.67;;;15.80;77.30;;;;;;5107498;28;20390;-87
2021/07/30 05:54:04;;;;;;;7.10;2.92;;;15.80;77.90;;;;;;5091380;28;20366;-93
2021/07/30 05:56:29;;;;;;;10.15;2.80;;;15.80;78.00;;;;;;5073325;28;20389;-88
2021/07/30 05:58:56;;;;;;;11.40;4.32;;;15.80;78.10;;;;;;5091230;28;20402;-93
2021/07/30 06:01:22;;;;;;;6.45;2.70;;;15.80;77.90;;;;;;5107162;28;20373;-88
2021/07/30 06:03:47;;;;;;;5.40;2.50;;;15.80;78.20;;;;;;5107017;28;20442;-88
2021/07/30 06:06:13;;;;;;;4.30;2.67;;;15.80;77.50;;;;;;5097629;28;20387;-93
2021/07/30 06:08:40;;;;;;;5.47;2.67;;;15.80;77.70;;;;;;5056213;28;20387;-90
2021/07/30 06:11:05;;;;;;;7.40;2.95;;;15.90;77.80;;;;;;5067752;28;20490;-88
2021/07/30 06:13:31;;;;;;;8.40;2.67;;;15.90;78.40;;;;;;5071103;28;20400;-90
2021/07/30 06:15:56;;;;;;;8.23;2.70;;;15.90;77.80;;;;;;5052872;28;20390;-89
2021/07/30 06:18:22;;;;;;;8.67;2.80;;;15.90;77.90;;;;;;5053121;28;20417;-89
2021/07/30 06:20:48;;;;;;;9.57;2.83;;;15.90;77.50;;;;;;5070748;28;20375;-90
2021/07/30 06:23:13;;;;;;;5.35;2.90;;;16.00;77.70;;;;;;5053157;28;20748;-90
2021/07/30 06:25:39;;;;;;;5.65;2.20;;;16.10;77.40;;;;;;5070840;28;20378;-88
2021/07/30 06:28:04;;;;;;;5.70;2.50;;;16.10;77.10;;;;;;5070434;28;20398;-88
2021/07/30 06:30:31;;;;;;;5.07;2.50;;;16.20;76.70;;;;;;5087067;28;20423;-88
2021/07/30 06:32:56;;;;;;;6.65;2.53;;;16.20;76.40;;;;;;5070601;28;20372;-89
2021/07/30 06:35:25;;;;;;;4.35;2.10;;;16.30;76.70;;;;;;5070703;28;20511;-90
2021/07/30 06:37:50;;;;;;;4.70;2.10;;;16.30;75.00;;;;;;5091541;28;20848;-89
2021/07/30 06:40:16;;;;;;;10.50;2.40;;;16.40;75.40;;;;;;5073369;28;20374;-87
2021/07/30 06:42:41;;;;;;;5.25;2.30;;;16.60;74.50;;;;;;5090846;28;20370;-92
2021/07/30 06:45:07;;;;;;;3.70;2.10;;;16.70;74.50;;;;;;5090687;28;20370;-88
2021/07/30 06:47:34;;;;;;;4.37;2.13;;;16.80;74.40;;;;;;5084505;28;20451;-88
2021/07/30 06:50:00;;;;;;;7.45;2.20;;;16.80;74.30;;;;;;5069692;28;20481;-88
2021/07/30 06:52:25;;;;;;;6.40;2.20;;;16.90;75.00;;;;;;5075750;28;20464;-86
2021/07/30 06:54:54;;;;;;;8.70;2.10;;;16.90;74.80;;;;;;5106528;28;20430;-88
2021/07/30 06:57:20;;;;;;;5.75;2.20;;;16.90;73.90;;;;;;5087204;28;20374;-91
2021/07/30 06:59:47;;;;;;;6.70;2.33;;;16.90;74.40;;;;;;5105488;28;20409;-93
2021/07/30 07:02:12;;;;;;;8.90;2.00;;;16.90;74.20;;;;;;5090216;28;20567;-95
2021/07/30 07:04:38;;;;;;;7.53;2.17;;;17.00;74.20;;;;;;5105168;28;20469;-87
2021/07/30 07:07:04;;;;;;;6.95;2.20;;;17.10;74.30;;;;;;5089520;28;20760;-88
2021/07/30 07:09:30;;;;;;;5.38;2.00;;;17.00;74.00;;;;;;5105351;28;20378;-91
2021/07/30 07:11:55;;;;;;;5.07;2.15;;;17.20;73.60;;;;;;5105054;28;20370;-88
2021/07/30 07:14:21;;;;;;;3.87;2.17;;;17.30;73.20;;;;;;5073682;28;20418;-91
2021/07/30 07:16:46;;;;;;;5.95;2.30;;;17.30;73.30;;;;;;5098975;28;20879;-90
2021/07/30 07:19:12;;;;;;;8.23;2.70;;;17.30;74.00;;;;;;5069079;28;20403;-89
2021/07/30 07:21:38;;;;;;;8.87;2.00;;;17.30;73.30;;;;;;5088262;28;20378;-91
2021/07/30 07:24:05;;;;;;;4.18;2.10;;;17.30;72.30;;;;;;5071213;28;20370;-88
2021/07/30 07:26:31;;;;;;;6.43;2.03;;;17.40;72.90;;;;;;5071887;28;20375;-93
2021/07/30 07:28:56;;;;;;;5.80;2.27;;;17.40;71.60;;;;;;5090570;28;20374;-90
2021/07/30 07:31:22;;;;;;;9.03;2.47;;;17.50;71.40;;;;;;5106044;28;20404;-91
2021/07/30 07:33:48;;;;;;;5.55;1.92;;;17.50;71.80;;;;;;5104754;28;20366;-88
2021/07/30 07:36:13;;;;;;;6.87;1.90;;;17.60;71.30;;;;;;5089139;28;20370;-90
2021/07/30 07:38:39;;;;;;;3.83;2.00;;;17.60;72.40;;;;;;5071774;28;20414;-91
2021/07/30 07:41:04;;;;;;;5.90;2.03;;;17.70;71.00;;;;;;5069075;28;20697;-90
2021/07/30 07:43:30;;;;;;;3.30;1.80;;;17.80;70.70;;;;;;5069352;28;20387;-92
2021/07/30 07:45:55;;;;;;;5.18;1.90;;;17.90;70.10;;;;;;5070193;28;20380;-88
2021/07/30 07:48:21;;;;;;;4.80;2.03;;;17.90;70.60;;;;;;5088242;28;20813;-88
2021/07/30 07:50:46;;;;;;;5.17;1.80;;;18.00;70.20;;;;;;5073055;28;20767;-88
2021/07/30 07:53:16;;;;;;;5.80;1.90;;;18.00;69.70;;;;;;5088582;28;20380;-89
2021/07/30 07:55:42;;;;;;;8.93;2.00;;;18.10;69.10;;;;;;5072714;28;20371;-88
2021/07/30 07:58:08;;;;;;;4.20;1.80;;;18.20;68.40;;;;;;5088440;28;20518;-91
2021/07/30 08:00:35;;;;;;;4.95;2.05;;;18.20;69.20;;;;;;5072141;28;20386;-89
2021/07/30 08:03:01;;;;;;;6.45;2.13;;;18.20;69.70;;;;;;5054516;28;20516;-90
2021/07/30 08:05:27;;;;;;;4.25;1.98;;;18.30;68.60;;;;;;5071617;28;20799;-89
2021/07/30 08:07:52;;;;;;;5.77;1.90;;;18.40;71.00;;;;;;5086910;28;20434;-87
2021/07/30 08:10:18;;;;;;;6.03;1.90;;;18.70;66.20;;;;;;5063823;28;20715;-89
2021/07/30 08:12:43;;;;;;;4.63;1.80;;;18.80;67.90;;;;;;5074590;28;20389;-86
2021/07/30 08:15:09;;;;;;;5.13;1.90;;;18.80;65.60;;;;;;5092071;28;20381;-88
2021/07/30 08:17:36;;;;;;;6.68;2.30;;;18.80;65.80;;;;;;5074145;28;20515;-93
2021/07/30 08:20:02;;;;;;;5.45;1.70;;;18.80;65.10;;;;;;5092205;28;20374;-88
2021/07/30 08:22:28;;;;;;;3.67;2.07;;;18.90;65.30;;;;;;5091871;28;20374;-88
2021/07/30 08:24:53;;;;;;;6.33;1.83;;;19.10;65.90;;;;;;5091488;28;20790;-87
2021/07/30 08:27:19;;;;;;;5.10;1.88;;;19.20;67.20;;;;;;5083698;28;20882;-90
2021/07/30 08:29:44;;;;;;;5.70;1.80;;;19.30;65.90;;;;;;5087441;28;21005;-92
2021/07/30 08:32:10;;;;;;;4.90;1.63;;;19.30;63.60;;;;;;5071461;28;20375;-87
2021/07/30 08:34:38;;;;;;;5.03;1.90;;;19.30;63.90;;;;;;5071280;28;20475;-88
2021/07/30 08:37:04;;;;;;;5.67;1.80;;;19.40;63.80;;;;;;5071665;28;20778;-88
2021/07/30 08:39:30;;;;;;;6.50;1.73;;;19.40;62.60;;;;;;5071654;28;20788;-89
2021/07/30 08:41:59;;;;;;;3.47;1.80;;;19.40;62.40;;;;;;5072373;28;20848;-86
2021/07/30 08:44:25;;;;;;;5.72;1.90;;;19.50;63.10;;;;;;5053753;28;20418;-89
2021/07/30 08:46:52;;;;;;;2.65;1.80;;;19.50;63.30;;;;;;5053637;28;20434;-89
2021/07/30 08:49:17;;;;;;;6.38;2.00;;;19.60;65.00;;;;;;5054020;28;20478;-89
2021/07/30 08:51:49;;;;;;;6.70;2.30;;;19.70;63.60;;;;;;5071301;28;20475;-88
2021/07/30 08:54:14;;;;;;;6.18;2.38;;;19.80;62.60;;;;;;5071171;28;20372;-87
2021/07/30 08:56:40;;;;;;;4.43;2.08;;;20.10;62.10;;;;;;5071015;28;20478;-86
2021/07/30 08:59:08;;;;;;;7.67;1.80;;;20.10;61.70;;;;;;5052922;28;20411;-88
2021/07/30 09:01:34;;;;;;;4.85;1.80;;;20.20;61.70;;;;;;5070777;28;20372;-86
2021/07/30 09:03:59;;;;;;;4.90;1.70;;;20.10;63.20;;;;;;5070940;28;20439;-86
2021/07/30 09:06:25;;;;;;;6.63;1.75;;;20.10;62.90;;;;;;5070914;28;20459;-89
2021/07/30 09:08:54;;;;;;;5.23;1.67;;;20.60;60.10;;;;;;5070811;28;20372;-87
2021/07/30 09:11:31;;;;;;;4.32;1.83;;;20.60;60.50;;;;;;5070689;28;20384;-81
2021/07/30 09:13:57;;;;;;;2.80;1.50;;;20.50;59.80;;;;;;5086598;28;20879;-85
2021/07/30 09:16:23;;;;;;;4.93;1.70;;;20.60;61.20;;;;;;5074471;28;20376;-83
2021/07/30 09:18:51;;;;;;;5.70;2.00;;;20.70;60.20;;;;;;5070559;28;20462;-83
2021/07/30 09:21:33;;;;;;;6.10;1.70;;;20.80;63.20;;;;;;5071342;28;20463;-82
2021/07/30 09:24:05;;;;;;;6.38;1.75;;;20.90;60.50;;;;;;5047094;28;20742;-82
2021/07/30 09:26:46;;;;;;;5.07;1.80;;;21.30;59.80;;;;;;5049311;28;20382;-86
2021/07/30 09:29:21;;;;;;;2.88;1.45;;;21.20;59.20;;;;;;5065187;28;20931;-83
2021/07/30 09:32:08;;;;;;;8.07;2.10;;;21.20;57.10;;;;;;5050043;28;20377;-81
2021/07/30 09:34:36;;;;;;;6.72;1.60;;;21.10;57.60;;;;;;5049973;28;20562;-83
2021/07/30 09:37:05;;;;;;;6.88;1.90;;;21.30;63.60;;;;;;5050215;28;20902;-81
2021/07/30 09:39:35;;;;;;;5.00;1.60;;;21.50;61.80;;;;;;5032888;28;20919;-80
2021/07/30 09:42:04;;;;;;;5.15;1.95;;;21.50;59.40;;;;;;5070026;28;20462;-81
2021/07/30 09:44:31;;;;;;;5.78;1.70;;;21.80;57.40;;;;;;5069751;28;20707;-80
2021/07/30 09:47:14;;;;;;;5.30;1.75;;;21.90;58.00;;;;;;5069789;28;20379;-82
2021/07/30 09:49:49;;;;;;;5.45;1.70;;;22.20;56.90;;;;;;5052330;28;20534;-80
2021/07/30 09:52:41;;;;;;;6.25;1.80;;;22.10;62.60;;;;;;5089102;28;20382;-80
2021/07/30 09:55:09;;;;;;;5.15;1.80;;;21.90;56.90;;;;;;5081052;28;20761;-80
2021/07/30 09:57:37;;;;;;;4.88;1.90;;;22.20;58.40;;;;;;5071023;28;20731;-79
2021/07/30 10:00:04;;;;;;;2.72;1.70;;;22.20;59.90;;;;;;5071600;28;20925;-81
2021/07/30 10:02:32;;;;;;;7.03;2.08;;;22.10;55.60;;;;;;5105241;28;20731;-80
2021/07/30 10:04:59;;;;;;;2.87;1.90;;;21.80;58.30;;;;;;5082502;28;20368;-78
2021/07/30 10:07:30;;;;;;;5.95;1.85;;;21.40;58.80;;;;;;5069094;28;20383;-81
2021/07/30 10:10:04;;;;;;;5.88;1.75;;;21.60;60.50;;;;;;5051181;28;20852;-81
2021/07/30 10:12:31;;;;;;;3.15;2.10;;;22.20;58.00;;;;;;5051543;28;20394;-83
2021/07/30 10:15:01;;;;;;;4.00;1.77;;;22.30;61.50;;;;;;5084814;28;20462;-81
2021/07/30 10:17:33;;;;;;;3.58;2.00;;;22.10;57.00;;;;;;5070350;28;20410;-81
2021/07/30 10:20:09;;;;;;;5.97;2.22;;;22.20;57.40;;;;;;5064153;28;20878;-79
2021/07/30 10:23:03;;;;;;;4.65;2.30;;;22.10;58.00;;;;;;5031667;28;20385;-80
2021/07/30 10:25:38;;;;;;;5.40;2.58;;;22.40;58.40;;;;;;5049347;28;20442;-84
2021/07/30 10:28:28;;;;;;;9.35;3.30;;;22.80;57.40;;;;;;5074029;28;20400;-85
2021/07/30 10:31:02;;;;;;;5.63;2.65;;;22.50;57.40;;;;;;5104760;28;20386;-76
2021/07/30 10:33:31;;;;;;;5.55;2.28;;;22.10;60.30;;;;;;5090267;28;20374;-80
2021/07/30 10:35:57;;;;;;;5.87;2.40;;;22.30;61.70;;;;;;5105932;28;20390;-80
2021/07/30 10:38:25;;;;;;;6.15;2.60;;;22.60;58.50;;;;;;5099708;28;20406;-80
2021/07/30 10:41:08;;;;;;;7.85;2.20;;;22.80;57.10;;;;;;5065747;28;20465;-84
2021/07/30 10:43:49;;;;;;;7.15;2.13;;;22.70;57.30;;;;;;5088958;28;20404;-82
2021/07/30 10:46:19;;;;;;;6.20;2.40;;;23.10;58.60;;;;;;5090149;28;20366;-81
2021/07/30 10:48:45;;;;;;;5.82;2.15;;;23.30;58.00;;;;;;5072475;28;20856;-82
2021/07/30 10:51:27;;;;;;;6.13;2.30;;;22.60;55.90;;;;;;5105756;28;20382;-84
2021/07/30 10:54:02;;;;;;;5.88;2.55;;;22.50;57.10;;;;;;5090521;28;20366;-81
2021/07/30 10:56:28;;;;;;;6.40;2.20;;;22.70;59.80;;;;;;5087123;28;20377;-80
2021/07/30 10:58:54;;;;;;;6.23;2.20;;;22.80;57.10;;;;;;5095919;28;20407;-82
2021/07/30 11:01:27;;;;;;;4.80;2.40;;;23.20;59.00;;;;;;5070699;28;20415;-83
2021/07/30 11:03:52;;;;;;;7.20;2.20;;;23.30;60.90;;;;;;5099844;28;20413;-81
2021/07/30 11:06:19;;;;;;;6.43;2.23;;;23.30;56.00;;;;;;5090553;28;20379;-80
2021/07/30 11:11:47;;;;;;;6.33;2.40;;;23.60;55.80;;;;;;5090296;28;20892;-81
2021/07/30 11:14:12;;;;;;;5.10;2.10;;;23.70;55.80;;;;;;5075939;28;20394;-85
2021/07/30 11:16:53;;;;;;;7.03;2.38;;;23.30;54.10;;;;;;5070115;28;20372;-82
2021/07/30 11:19:27;;;;;;;3.78;2.05;;;23.30;55.10;;;;;;5066182;28;20450;-84
2021/07/30 11:21:53;;;;;;;7.15;2.08;;;23.50;54.80;;;;;;5053076;28;20413;-82
2021/07/30 11:24:19;;;;;;;3.58;2.03;;;23.20;55.20;;;;;;5071001;28;20387;-84
2021/07/30 11:26:46;;;;;;;5.90;2.37;;;23.40;54.40;;;;;;5057949;28;20442;-83
2021/07/30 11:29:19;;;;;;;6.25;2.05;;;23.40;54.10;;;;;;5077540;28;20782;-83
2021/07/30 11:31:57;;;;;;;6.43;2.22;;;23.80;52.30;;;;;;5085227;28;20384;-85
2021/07/30 11:34:34;;;;;;;5.80;2.10;;;24.00;53.00;;;;;;5072766;28;20387;-85
2021/07/30 11:37:02;;;;;;;3.58;2.20;;;24.10;54.70;;;;;;5089603;28;20478;-90
2021/07/30 11:39:43;;;;;;;8.20;2.30;;;23.90;52.10;;;;;;5048096;28;20914;-86
2021/07/30 11:42:09;;;;;;;5.53;1.98;;;23.30;53.00;;;;;;5053584;28;20381;-87
2021/07/30 11:44:46;;;;;;;2.92;1.85;;;23.10;54.50;;;;;;5077418;28;20717;-86
2021/07/30 11:47:12;;;;;;;5.20;2.03;;;23.00;55.00;;;;;;5074968;28;20375;-84
2021/07/30 11:49:41;;;;;;;3.90;2.40;;;23.30;55.00;;;;;;5073787;28;20440;-85
2021/07/30 11:52:10;;;;;;;4.70;1.92;;;23.40;52.70;;;;;;5089427;28;20472;-86
2021/07/30 11:54:36;;;;;;;4.38;2.17;;;23.30;55.90;;;;;;5073682;28;20398;-85
2021/07/30 11:57:03;;;;;;;7.30;2.27;;;23.00;54.30;;;;;;5073401;28;20376;-85
2021/07/30 11:59:45;;;;;;;5.87;2.47;;;23.10;56.50;;;;;;5073473;28;20404;-85
2021/07/30 12:02:12;;;;;;;3.45;2.05;;;23.30;54.30;;;;;;5087705;28;20381;-83
2021/07/30 12:04:47;;;;;;;6.47;2.30;;;23.30;54.50;;;;;;5093826;28;20436;-89
2021/07/30 12:07:19;;;;;;;6.25;2.10;;;23.10;55.50;;;;;;5093936;28;20409;-91
2021/07/30 12:09:46;;;;;;;5.10;2.53;;;23.40;53.90;;;;;;5093858;28;20377;-86
2021/07/30 12:12:15;;;;;;;5.68;2.30;;;23.70;54.70;;;;;;5094080;28;20512;-92
2021/07/30 12:14:47;;;;;;;5.13;2.17;;;23.70;53.20;;;;;;5076339;28;20440;-90
2021/07/30 12:17:17;;;;;;;6.30;2.13;;;23.50;55.50;;;;;;5078188;28;20623;-92
2021/07/30 12:19:43;;;;;;;5.75;2.30;;;23.40;55.10;;;;;;5086343;28;20488;-92
2021/07/30 12:22:10;;;;;;;5.15;2.38;;;23.20;54.90;;;;;;5090354;28;20428;-89
2021/07/30 12:24:47;;;;;;;3.58;1.90;;;23.20;55.70;;;;;;5093460;28;20370;-86
2021/07/30 12:27:21;;;;;;;5.95;2.33;;;23.20;53.40;;;;;;5093449;28;20696;-86
2021/07/30 12:29:48;;;;;;;4.50;2.40;;;23.10;55.30;;;;;;5078367;28;20382;-90
2021/07/30 12:32:16;;;;;;;3.90;2.23;;;23.30;52.80;;;;;;5072695;28;20384;-86
2021/07/30 12:34:57;;;;;;;3.65;2.10;;;23.20;54.70;;;;;;5054591;28;20441;-85
2021/07/30 12:37:24;;;;;;;6.38;2.17;;;23.30;52.60;;;;;;5075376;28;20394;-86
2021/07/30 12:39:51;;;;;;;5.43;2.28;;;23.30;54.30;;;;;;5075299;28;20416;-89
2021/07/30 12:42:25;;;;;;;6.53;2.30;;;23.30;55.50;;;;;;5088471;28;20740;-86
2021/07/30 12:45:01;;;;;;;6.85;2.28;;;23.40;53.70;;;;;;5053568;28;20388;-87
2021/07/30 12:47:27;;;;;;;5.63;2.03;;;23.80;54.20;;;;;;5071833;28;20376;-86
2021/07/30 12:49:53;;;;;;;5.53;2.10;;;24.00;53.40;;;;;;5072723;28;20504;-91
2021/07/30 12:52:19;;;;;;;4.17;2.40;;;24.10;52.80;;;;;;5072812;28;20372;-82